Webcam

2022/08/15 20:50 EBBR 152050Z 24004KT CAVOK 20/15 Q1006 NOSIG

Webcam

--- Refresh now ---